Time;durP1;ratioP1;P1;durP2;ratioP2;P2;SDS_P1;SDS_P2;PMS_P1;PMS_P2;Temp;Humidity;BMP_temperature;BMP_pressure;BME280_temperature;BME280_humidity;BME280_pressure;Samples;Min_cycle;Max_cycle;Signal;HPM_P1;HPM_P2
2023/01/16 00:00:20;;;;;;;3.50;1.13;;;;;;;1.64;100.00;97906.16;5061010;28;20049;-78
2023/01/16 00:02:48;;;;;;;2.17;0.93;;;;;;;1.79;100.00;97899.19;5068164;28;20400;-78
2023/01/16 00:05:14;;;;;;;1.65;0.73;;;;;;;1.73;100.00;97870.38;5067504;28;20044;-78
2023/01/16 00:07:41;;;;;;;3.47;0.95;;;;;;;1.89;100.00;97901.78;5067133;28;20040;-78
2023/01/16 00:10:09;;;;;;;1.23;0.68;;;;;;;1.85;100.00;97876.28;5068147;28;20062;-78
2023/01/16 00:12:35;;;;;;;3.15;0.90;;;;;;;1.77;100.00;97861.00;5068079;28;20037;-78
2023/01/16 00:15:02;;;;;;;2.55;0.65;;;;;;;1.81;99.75;97859.69;5069125;28;20037;-78
2023/01/16 00:17:28;;;;;;;4.22;1.02;;;;;;;1.99;100.00;97881.03;5065724;28;20122;-78
2023/01/16 00:19:56;;;;;;;1.65;0.65;;;;;;;1.87;99.28;97855.53;5065188;28;20052;-78
2023/01/16 00:22:23;;;;;;;5.30;0.98;;;;;;;1.90;99.67;97861.41;5067368;28;20059;-77
2023/01/16 00:24:50;;;;;;;0.73;0.70;;;;;;;2.03;99.91;97874.38;5067194;28;20051;-78
2023/01/16 00:27:16;;;;;;;2.10;1.00;;;;;;;1.94;99.90;97846.69;5061613;28;20059;-78
2023/01/16 00:29:43;;;;;;;1.20;0.70;;;;;;;1.96;98.39;97841.16;5065254;28;20051;-78
2023/01/16 00:32:10;;;;;;;7.47;1.27;;;;;;;2.00;97.73;97845.19;5054606;28;20060;-78
2023/01/16 00:34:37;;;;;;;3.85;1.17;;;;;;;2.09;97.98;97854.94;5068471;28;20504;-78
2023/01/16 00:37:05;;;;;;;0.80;0.80;;;;;;;1.95;97.72;97823.41;5059619;28;20528;-78
2023/01/16 00:39:32;;;;;;;2.92;1.10;;;;;;;2.12;97.77;97845.72;5064483;28;20064;-77
2023/01/16 00:41:59;;;;;;;9.30;1.05;;;;;;;1.95;98.17;97810.00;5069115;28;20048;-78
2023/01/16 00:44:25;;;;;;;0.77;0.73;;;;;;;2.01;97.12;97805.81;5070403;28;20526;-78
2023/01/16 00:46:52;;;;;;;5.15;0.82;;;;;;;2.16;96.40;97825.63;5053668;28;20049;-78
2023/01/16 00:49:18;;;;;;;2.70;0.80;;;;;;;2.10;97.46;97802.16;5065759;28;20439;-78
2023/01/16 00:51:45;;;;;;;3.22;0.70;;;;;;;2.19;95.76;97809.22;5068741;28;20072;-78
2023/01/16 00:54:13;;;;;;;3.20;0.98;;;;;;;2.04;96.85;97792.09;5065047;28;20119;-78
2023/01/16 00:56:40;;;;;;;2.92;0.75;;;;;;;2.27;95.56;97819.09;5060152;28;20496;-78
2023/01/16 00:59:06;;;;;;;3.08;0.82;;;;;;;2.19;94.62;97781.56;5065429;28;20056;-78
2023/01/16 01:01:33;;;;;;;5.25;0.57;;;;;;;2.26;94.82;97791.47;5060413;28;20052;-78
2023/01/16 01:04:00;;;;;;;7.43;0.70;;;;;;;2.32;94.33;97794.47;5067598;28;20087;-78
2023/01/16 01:06:26;;;;;;;5.13;1.30;;;;;;;2.27;94.50;97782.41;5065581;28;20060;-77
2023/01/16 01:08:53;;;;;;;3.80;1.00;;;;;;;2.29;93.44;97771.53;5066512;28;20114;-78
2023/01/16 01:11:21;;;;;;;1.23;0.98;;;;;;;2.38;93.32;97767.84;5067055;28;20403;-78
2023/01/16 01:13:48;;;;;;;1.00;0.73;;;;;;;2.39;92.64;97753.41;5067108;28;20075;-77
2023/01/16 01:16:15;;;;;;;2.78;1.05;;;;;;;2.40;92.81;97757.78;5069597;28;20040;-77
2023/01/16 01:18:42;;;;;;;3.80;0.80;;;;;;;2.40;92.93;97765.00;5065724;28;20490;-78
2023/01/16 01:21:09;;;;;;;2.65;0.80;;;;;;;2.38;92.95;97740.16;5065566;28;20045;-77
2023/01/16 01:23:36;;;;;;;1.60;0.85;;;;;;;2.32;92.39;97732.78;5066620;28;20048;-77
2023/01/16 01:26:07;;;;;;;2.90;0.68;;;;;;;2.35;91.76;97730.63;5057444;28;20068;-78
2023/01/16 01:28:35;;;;;;;2.03;0.88;;;;;;;2.39;92.52;97726.56;5066272;28;20082;-78
2023/01/16 01:31:06;;;;;;;4.63;0.93;;;;;;;2.26;91.51;97716.38;5063750;28;20053;-78
2023/01/16 01:33:33;;;;;;;1.52;0.57;;;;;;;2.38;92.39;97727.59;5063822;28;20044;-78
2023/01/16 01:36:00;;;;;;;5.50;0.82;;;;;;;2.47;90.64;97725.75;5063555;28;20041;-78
2023/01/16 01:38:26;;;;;;;2.22;0.80;;;;;;;2.38;92.01;97706.16;5068283;28;20124;-78
2023/01/16 01:40:53;;;;;;;1.65;0.75;;;;;;;2.48;91.32;97703.28;5065475;28;20036;-78
2023/01/16 01:43:20;;;;;;;3.40;1.05;;;;;;;2.59;92.09;97721.72;5065984;28;20051;-78
2023/01/16 01:45:52;;;;;;;3.63;1.08;;;;;;;2.38;93.41;97692.75;5062133;28;20048;-77
2023/01/16 01:48:24;;;;;;;0.77;0.50;;;;;;;2.43;92.75;97703.78;5066194;28;20052;-78
2023/01/16 01:50:57;;;;;;;0.88;0.85;;;;;;;2.30;91.57;97688.22;5060698;28;20049;-78
2023/01/16 01:53:28;;;;;;;1.45;0.77;;;;;;;2.46;91.97;97697.25;5066441;28;20045;-78
2023/01/16 01:55:58;;;;;;;1.90;0.70;;;;;;;2.30;91.49;97666.78;5062829;28;20445;-78
2023/01/16 01:58:26;;;;;;;6.57;1.25;;;;;;;2.37;92.21;97661.56;5071240;28;20162;-78
2023/01/16 02:00:58;;;;;;;2.78;0.80;;;;;;;2.33;92.22;97659.38;5069914;28;20135;-78
2023/01/16 02:03:32;;;;;;;0.57;0.55;;;;;;;2.18;92.52;97643.97;5068226;28;20052;-78
2023/01/16 02:06:01;;;;;;;4.28;0.70;;;;;;;2.12;93.15;97642.81;5068657;28;20044;-78
2023/01/16 02:08:32;;;;;;;1.85;0.77;;;;;;;2.17;92.62;97655.72;5069362;28;20460;-78
2023/01/16 02:11:04;;;;;;;2.97;0.80;;;;;;;2.12;93.92;97634.78;5065748;28;20044;-77
2023/01/16 02:13:31;;;;;;;3.30;0.80;;;;;;;2.06;93.78;97634.59;5055476;28;20058;-78
2023/01/16 02:22:03;;;;;;;3.65;0.93;;;;;;;1.96;95.09;97616.00;5062449;28;20048;-77
2023/01/16 02:24:55;;;;;;;6.85;0.80;;;;;;;1.88;94.73;97616.00;5063840;28;20407;-78
2023/01/16 02:27:42;;;;;;;1.30;0.65;;;;;;;1.74;95.08;97590.72;5038124;28;20044;-78
2023/01/16 02:30:37;;;;;;;0.88;0.70;;;;;;;1.80;96.03;97590.03;5068699;28;20131;-78
2023/01/16 02:33:11;;;;;;;3.65;0.80;;;;;;;1.66;95.63;97586.19;5069404;28;20053;-78
2023/01/16 02:35:55;;;;;;;3.83;1.65;;;;;;;1.58;96.31;97565.63;5073566;28;20051;-78
2023/01/16 02:38:29;;;;;;;1.77;0.75;;;;;;;1.68;96.81;97584.19;5072822;28;20044;-78
2023/01/16 02:41:03;;;;;;;1.88;0.70;;;;;;;1.49;95.82;97538.97;5065895;28;20052;-78
2023/01/16 02:43:35;;;;;;;1.95;0.88;;;;;;;1.50;96.13;97533.44;5070361;28;20488;-77
2023/01/16 02:46:10;;;;;;;0.70;0.70;;;;;;;1.56;97.53;97538.13;5072926;28;20056;-78
2023/01/16 02:48:48;;;;;;;0.80;0.80;;;;;;;1.61;98.11;97534.94;5067056;28;20127;-78
2023/01/16 02:51:23;;;;;;;1.73;0.90;;;;;;;1.48;96.48;97514.03;5070241;28;20053;-78
2023/01/16 02:53:57;;;;;;;0.77;0.60;;;;;;;1.47;97.49;97512.38;5070188;28;20048;-77
2023/01/16 02:56:31;;;;;;;2.45;0.90;;;;;;;1.67;98.05;97523.59;5068063;28;20055;-78
2023/01/16 02:58:59;;;;;;;2.25;1.05;;;;;;;1.63;97.94;97500.81;5071161;28;20105;-78
2023/01/16 03:01:25;;;;;;;1.33;1.23;;;;;;;1.59;97.06;97480.72;5068970;28;20376;-78
2023/01/16 03:04:21;;;;;;;1.75;0.82;;;;;;;1.67;97.01;97486.09;5072077;28;20053;-78
2023/01/16 03:06:55;;;;;;;4.65;0.90;;;;;;;1.70;98.06;97480.38;5067565;28;20047;-78
2023/01/16 03:09:43;;;;;;;1.23;0.80;;;;;;;1.64;97.47;97467.69;5055750;28;20388;-78
2023/01/16 03:12:22;;;;;;;0.60;0.60;;;;;;;1.83;97.01;97471.81;5068328;28;20048;-78
2023/01/16 03:14:56;;;;;;;0.65;0.60;;;;;;;1.94;96.59;97471.47;5073027;28;20044;-78
2023/01/16 03:17:38;;;;;;;1.00;0.88;;;;;;;1.93;96.50;97469.78;5072311;28;20056;-78
2023/01/16 03:20:17;;;;;;;3.55;0.90;;;;;;;1.83;97.22;97445.00;5070829;28;20048;-78
2023/01/16 03:22:52;;;;;;;3.08;0.82;;;;;;;1.88;96.40;97456.06;5063866;28;20492;-78
2023/01/16 03:25:29;;;;;;;2.13;0.90;;;;;;;1.80;97.22;97425.78;5071713;28;20044;-78
2023/01/16 03:28:04;;;;;;;7.78;1.00;;;;;;;1.77;96.31;97433.13;5069639;28;20058;-78
2023/01/16 03:30:39;;;;;;;3.50;1.08;;;;;;;1.84;98.46;97429.78;5064829;28;20087;-78
2023/01/16 03:33:11;;;;;;;6.65;0.95;;;;;;;1.94;97.72;97439.28;5068038;28;20334;-78
2023/01/16 03:35:46;;;;;;;4.43;1.08;;;;;;;1.83;97.09;97426.25;5065912;28;20041;-78
2023/01/16 03:38:15;;;;;;;0.85;0.68;;;;;;;1.80;97.99;97410.53;5071262;28;20075;-78
2023/01/16 03:40:45;;;;;;;1.20;0.68;;;;;;;1.97;97.15;97421.19;5069866;28;20044;-78
2023/01/16 03:43:15;;;;;;;1.38;0.77;;;;;;;1.82;97.78;97395.09;5069288;28;20488;-78
2023/01/16 03:45:46;;;;;;;2.67;1.00;;;;;;;1.89;97.75;97387.22;5061720;28;20489;-78
2023/01/16 03:48:18;;;;;;;0.68;0.60;;;;;;;1.88;96.53;97382.84;5063924;28;20072;-78
2023/01/16 03:50:52;;;;;;;2.33;0.60;;;;;;;1.77;97.65;97360.78;5070541;28;20041;-78
2023/01/16 03:53:24;;;;;;;2.25;0.95;;;;;;;1.93;96.99;97377.81;5070740;28;20052;-78
2023/01/16 03:55:58;;;;;;;0.75;0.65;;;;;;;1.76;97.72;97355.59;5067846;28;20044;-78
2023/01/16 03:58:30;;;;;;;2.22;0.75;;;;;;;1.81;98.24;97347.03;5069925;28;20488;-78
2023/01/16 04:01:06;;;;;;;1.23;0.55;;;;;;;1.78;97.85;97353.59;5059761;28;20045;-78
2023/01/16 04:03:39;;;;;;;1.40;0.85;;;;;;;1.80;97.22;97353.44;5064900;28;20040;-78
2023/01/16 04:06:11;;;;;;;3.00;0.70;;;;;;;1.93;96.58;97353.72;5064154;28;20063;-78
2023/01/16 04:08:41;;;;;;;1.48;0.80;;;;;;;1.91;96.83;97347.66;5071164;28;20484;-78
2023/01/16 04:11:09;;;;;;;0.60;0.60;;;;;;;1.89;96.03;97349.69;5071863;28;20059;-78
2023/01/16 04:13:37;;;;;;;4.00;0.57;;;;;;;1.66;97.78;97312.13;5066634;28;20445;-78
2023/01/16 04:16:09;;;;;;;1.65;0.50;;;;;;;1.65;96.18;97303.25;5067699;28;21360;-78
2023/01/16 04:18:37;;;;;;;1.55;0.77;;;;;;;1.60;96.73;97300.25;5070448;28;20421;-78
2023/01/16 04:21:05;;;;;;;4.13;0.85;;;;;;;1.69;97.09;97314.47;5070605;28;20581;-78
2023/01/16 04:23:33;;;;;;;2.60;1.00;;;;;;;1.66;97.11;97309.44;5069113;28;20060;-78
2023/01/16 04:26:00;;;;;;;1.42;0.85;;;;;;;1.46;97.70;97279.56;5063150;28;20049;-78
2023/01/16 04:28:26;;;;;;;2.17;0.80;;;;;;;1.31;98.71;97269.56;5068443;28;20440;-78
2023/01/16 04:30:53;;;;;;;2.70;1.00;;;;;;;1.32;99.26;97252.50;5066913;28;20059;-78
2023/01/16 04:33:19;;;;;;;1.80;0.82;;;;;;;1.26;99.27;97255.84;5068722;28;20056;-78
2023/01/16 04:35:46;;;;;;;1.92;1.08;;;;;;;1.28;99.00;97255.69;5071131;28;20040;-78
2023/01/16 04:38:13;;;;;;;4.32;0.73;;;;;;;1.12;99.21;97240.53;5068539;28;20052;-78
2023/01/16 04:40:40;;;;;;;1.40;0.77;;;;;;;1.11;99.48;97234.31;5066537;28;20130;-78
2023/01/16 04:43:07;;;;;;;1.23;0.77;;;;;;;1.12;99.60;97227.16;5050711;28;20044;-78
2023/01/16 04:45:33;;;;;;;0.90;0.70;;;;;;;1.17;98.95;97240.84;5064664;28;20356;-78
2023/01/16 04:48:00;;;;;;;5.70;1.15;;;;;;;1.14;99.22;97239.34;5066495;28;20048;-77
2023/01/16 04:50:26;;;;;;;1.15;0.68;;;;;;;1.13;99.63;97237.69;5069207;28;20045;-77
2023/01/16 04:52:53;;;;;;;1.70;0.60;;;;;;;1.15;100.00;97219.59;5066855;28;20050;-78
2023/01/16 04:55:20;;;;;;;2.05;0.70;;;;;;;1.23;98.49;97216.06;5068981;28;20460;-78
2023/01/16 04:57:48;;;;;;;2.33;1.27;;;;;;;1.04;98.00;97175.31;5070512;28;20071;-77
2023/01/16 05:00:15;;;;;;;2.55;0.90;;;;;;;1.01;98.89;97182.84;5067271;28;20385;-77
2023/01/16 05:02:41;;;;;;;5.88;1.65;;;;;;;0.91;99.58;97167.00;5068600;28;20040;-77
2023/01/16 05:05:08;;;;;;;3.08;0.70;;;;;;;0.94;99.95;97179.22;5065070;28;20058;-77
2023/01/16 05:07:35;;;;;;;8.02;1.10;;;;;;;0.98;99.22;97167.13;5068123;28;20055;-78
2023/01/16 05:10:01;;;;;;;2.22;0.85;;;;;;;0.86;99.53;97154.16;5068314;28;20048;-77
2023/01/16 05:12:28;;;;;;;4.25;1.00;;;;;;;0.86;99.63;97142.63;5067511;28;20292;-78
2023/01/16 05:14:56;;;;;;;1.33;0.68;;;;;;;0.90;99.80;97151.94;5066757;28;20041;-78
2023/01/16 05:17:24;;;;;;;1.73;1.35;;;;;;;0.68;100.00;97137.50;5069585;28;20040;-78
2023/01/16 05:19:51;;;;;;;2.13;0.90;;;;;;;0.65;100.00;97129.81;5071656;28;20136;-77
2023/01/16 05:22:18;;;;;;;1.25;0.80;;;;;;;0.71;100.00;97129.13;5070191;28;20055;-77
2023/01/16 05:24:44;;;;;;;1.45;1.00;;;;;;;0.56;100.00;97112.09;5062394;28;20432;-77
2023/01/16 05:27:11;;;;;;;1.40;0.80;;;;;;;0.63;100.00;97115.78;5070299;28;20045;-77
2023/01/16 05:29:37;;;;;;;2.08;1.10;;;;;;;0.62;100.00;97104.25;5065047;28;20055;-78
2023/01/16 05:32:05;;;;;;;2.22;0.95;;;;;;;0.63;100.00;97094.38;5062978;28;20075;-77
2023/01/16 05:34:32;;;;;;;0.95;0.90;;;;;;;0.52;100.00;97079.53;5071618;28;20048;-77
2023/01/16 05:36:58;;;;;;;1.65;1.10;;;;;;;0.50;100.00;97086.91;5071950;28;20044;-78
2023/01/16 05:39:25;;;;;;;4.25;1.00;;;;;;;0.45;100.00;97078.56;5064351;28;20058;-81
2023/01/16 05:41:51;;;;;;;3.03;0.80;;;;;;;0.54;100.00;97080.19;5071913;28;20045;-81
2023/01/16 05:44:19;;;;;;;4.28;1.13;;;;;;;0.46;100.00;97066.88;5068870;28;20074;-80
2023/01/16 05:46:45;;;;;;;3.42;1.45;;;;;;;0.35;100.00;97049.38;5052042;28;20148;-80
2023/01/16 05:49:13;;;;;;;1.60;1.20;;;;;;;0.57;100.00;97063.81;5064112;28;20048;-81
2023/01/16 05:51:40;;;;;;;9.88;1.20;;;;;;;0.49;100.00;97047.81;5070565;28;20072;-80
2023/01/16 05:54:06;;;;;;;1.08;0.90;;;;;;;0.53;100.00;97047.28;5071404;28;20040;-81
2023/01/16 05:56:33;;;;;;;1.10;1.00;;;;;;;0.42;100.00;97006.72;5059415;28;20045;-81
2023/01/16 05:58:59;;;;;;;4.43;1.08;;;;;;;0.60;100.00;97019.84;5058650;28;20056;-80
2023/01/16 06:01:26;;;;;;;1.23;1.02;;;;;;;0.59;100.00;97004.81;5070584;28;20052;-81
2023/01/16 06:03:52;;;;;;;2.22;1.33;;;;;;;0.40;100.00;96974.81;5057657;28;20056;-80
2023/01/16 06:06:20;;;;;;;2.15;0.95;;;;;;;0.47;100.00;96965.09;5069250;28;20052;-81
2023/01/16 06:08:47;;;;;;;1.00;0.90;;;;;;;0.53;100.00;96960.91;5066716;28;20041;-81
2023/01/16 06:11:14;;;;;;;2.15;1.10;;;;;;;0.60;100.00;96966.38;5063588;28;20060;-81
2023/01/16 06:13:40;;;;;;;1.80;1.13;;;;;;;0.79;100.00;96971.28;5069040;28;20047;-80
2023/01/16 06:16:08;;;;;;;1.98;1.10;;;;;;;0.70;99.51;96937.56;5069488;28;20044;-81
2023/01/16 06:18:37;;;;;;;1.52;0.90;;;;;;;0.82;99.91;96943.34;5061924;28;20123;-80
2023/01/16 06:21:04;;;;;;;1.50;1.00;;;;;;;0.92;99.40;96959.16;5057107;28;20049;-81
2023/01/16 06:23:32;;;;;;;0.90;0.80;;;;;;;0.90;99.44;96942.44;5068969;28;20052;-81
2023/01/16 06:25:59;;;;;;;5.20;0.93;;;;;;;0.82;98.14;96919.28;5064957;28;20056;-81
2023/01/16 06:28:25;;;;;;;2.05;0.85;;;;;;;0.91;98.02;96917.38;5061149;28;20086;-81
2023/01/16 06:30:52;;;;;;;1.33;0.88;;;;;;;1.06;97.18;96937.81;5059499;28;20404;-81
2023/01/16 06:33:19;;;;;;;3.35;0.93;;;;;;;0.94;98.28;96907.13;5059093;28;20060;-81
2023/01/16 06:35:46;;;;;;;1.23;0.95;;;;;;;1.12;96.73;96917.53;5069951;28;20406;-81
2023/01/16 06:38:12;;;;;;;5.60;1.00;;;;;;;1.09;96.06;96898.34;5067465;28;20062;-81
2023/01/16 06:40:44;;;;;;;20.17;1.85;;;;;;;0.93;96.43;96873.34;5065168;28;20049;-81
2023/01/16 06:43:10;;;;;;;1.08;0.80;;;;;;;1.06;96.93;96870.91;5070769;28;21024;-81
2023/01/16 06:45:37;;;;;;;1.77;0.98;;;;;;;1.17;96.53;96874.97;5067904;28;20048;-80
2023/01/16 06:48:04;;;;;;;2.35;1.10;;;;;;;0.99;96.04;96847.72;5075420;28;20056;-80
2023/01/16 06:50:30;;;;;;;3.88;1.80;;;;;;;1.20;95.68;96889.84;5064695;28;20045;-80
2023/01/16 06:52:57;;;;;;;5.05;2.35;;;;;;;1.08;95.39;96856.53;5068530;28;20391;-80
2023/01/16 06:55:24;;;;;;;2.90;1.00;;;;;;;1.16;96.53;96856.44;5062117;28;20033;-82
2023/01/16 06:57:51;;;;;;;1.88;1.05;;;;;;;1.10;96.09;96851.81;5075437;28;20059;-82
2023/01/16 07:00:19;;;;;;;2.08;1.23;;;;;;;1.16;96.44;96851.94;5074587;28;20048;-82
2023/01/16 07:02:54;;;;;;;1.35;1.08;;;;;;;1.03;96.82;96841.84;5066781;28;20137;-82
2023/01/16 07:05:21;;;;;;;3.70;1.10;;;;;;;1.14;96.25;96858.47;5057490;28;20058;-80
2023/01/16 07:07:48;;;;;;;1.48;1.08;;;;;;;0.97;96.48;96828.34;5060138;28;20045;-80
2023/01/16 07:10:14;;;;;;;2.88;1.50;;;;;;;1.01;96.69;96806.41;5068637;28;20139;-79
2023/01/16 07:12:41;;;;;;;2.40;0.95;;;;;;;1.16;95.94;96829.66;5068556;28;20416;-80
2023/01/16 07:23:24;;;;;;;5.32;1.58;;;;;;;0.97;97.47;96801.59;5067539;28;20106;-80
2023/01/16 07:25:57;;;;;;;1.15;0.95;;;;;;;1.09;96.30;96791.28;5068319;28;20484;-80
2023/01/16 07:28:23;;;;;;;1.10;1.00;;;;;;;1.15;96.17;96812.78;5072649;28;20048;-80
2023/01/16 07:30:51;;;;;;;3.38;1.30;;;;;;;1.05;96.81;96801.50;5075466;28;20051;-80
2023/01/16 07:33:18;;;;;;;1.90;1.02;;;;;;;0.94;95.87;96773.34;5073787;28;20052;-80
2023/01/16 07:35:45;;;;;;;1.38;0.95;;;;;;;0.97;95.94;96788.22;5072703;28;20492;-80
2023/01/16 07:38:12;;;;;;;1.48;1.10;;;;;;;1.23;94.44;96811.88;5070520;28;20044;-80
2023/01/16 07:40:38;;;;;;;1.40;1.10;;;;;;;1.13;94.59;96779.19;5072683;28;20049;-80
2023/01/16 07:43:05;;;;;;;1.08;0.90;;;;;;;1.21;94.64;96784.47;5060639;28;20059;-81
2023/01/16 07:45:31;;;;;;;1.02;0.75;;;;;;;1.14;94.21;96749.56;5072066;28;20071;-80
2023/01/16 07:48:00;;;;;;;1.13;0.93;;;;;;;1.24;94.05;96765.34;5067292;28;20055;-80
2023/01/16 07:50:27;;;;;;;1.08;0.98;;;;;;;1.27;94.44;96745.44;5064414;28;20048;-80
2023/01/16 07:52:53;;;;;;;5.75;1.25;;;;;;;1.33;93.60;96747.34;5071564;28;20051;-81
2023/01/16 07:55:20;;;;;;;3.05;1.02;;;;;;;1.41;93.65;96744.56;5072032;28;20055;-82
2023/01/16 07:57:46;;;;;;;6.05;1.17;;;;;;;1.41;93.10;96744.56;5066870;28;20491;-82
2023/01/16 08:00:14;;;;;;;4.13;1.00;;;;;;;1.31;92.44;96710.06;5070098;28;20067;-82
2023/01/16 08:02:41;;;;;;;3.33;0.90;;;;;;;1.37;92.67;96713.81;5071276;28;20041;-81
2023/01/16 08:05:10;;;;;;;5.18;0.75;;;;;;;1.52;92.28;96716.47;5071920;28;20548;-81
2023/01/16 08:07:37;;;;;;;3.20;0.85;;;;;;;1.36;92.57;96701.47;5072199;28;20051;-81
2023/01/16 08:10:05;;;;;;;1.67;0.80;;;;;;;1.57;92.05;96711.41;5068764;28;20057;-81
2023/01/16 08:12:36;;;;;;;1.05;0.90;;;;;;;1.47;91.18;96681.41;5070451;28;20040;-81
2023/01/16 08:15:02;;;;;;;2.22;0.90;;;;;;;1.62;91.37;96702.81;5069181;28;20053;-81
2023/01/16 08:17:29;;;;;;;1.17;0.73;;;;;;;1.61;91.81;96688.56;5064043;28;20052;-81
2023/01/16 08:19:55;;;;;;;1.83;0.80;;;;;;;1.55;91.28;96675.94;5071142;28;20047;-81
2023/01/16 08:22:23;;;;;;;2.75;1.17;;;;;;;1.74;90.29;96695.94;5071262;28;20041;-81
2023/01/16 08:24:52;;;;;;;7.63;1.33;;;;;;;1.74;91.14;96690.56;5069488;28;20044;-82
2023/01/16 08:27:19;;;;;;;1.43;0.73;;;;;;;1.67;90.49;96673.59;5070232;28;20044;-81
2023/01/16 08:29:45;;;;;;;1.65;0.85;;;;;;;1.73;90.67;96670.16;5064959;28;20107;-81
2023/01/16 08:32:12;;;;;;;3.08;1.10;;;;;;;1.88;90.10;96683.50;5070474;28;20055;-81
2023/01/16 08:34:38;;;;;;;3.35;0.95;;;;;;;1.90;90.46;96684.16;5069591;28;20067;-81
2023/01/16 08:37:06;;;;;;;5.28;1.20;;;;;;;1.89;90.68;96677.13;5070313;28;20045;-82
2023/01/16 08:39:34;;;;;;;5.07;0.90;;;;;;;1.77;89.07;96637.44;5071232;28;20048;-81
2023/01/16 08:53:13;;;;;;;1.15;1.05;;;;;;;2.28;88.04;96639.13;5026250;28;20049;-82
2023/01/16 08:55:40;;;;;;;1.17;0.68;;;;;;;2.24;88.06;96628.97;5059408;28;20063;-81
2023/01/16 08:58:07;;;;;;;0.70;0.70;;;;;;;2.14;86.77;96610.56;5071100;28;20051;-81
2023/01/16 09:00:35;;;;;;;1.50;0.95;;;;;;;2.20;87.35;96607.09;5067160;28;20040;-82
2023/01/16 09:03:01;;;;;;;1.80;0.90;;;;;;;2.19;86.96;96597.41;5068461;28;20055;-82
2023/01/16 09:05:28;;;;;;;1.70;0.80;;;;;;;2.26;86.02;96608.19;5069127;28;20079;-81
2023/01/16 09:07:55;;;;;;;1.23;0.93;;;;;;;2.51;85.60;96623.81;5066967;28;20056;-82
2023/01/16 09:10:22;;;;;;;2.33;1.05;;;;;;;2.47;84.92;96621.53;5070863;28;20052;-82
2023/01/16 09:15:34;;;;;;;2.78;0.80;;;;;;;2.30;85.39;96587.97;5057402;28;20407;-82
2023/01/16 09:18:03;;;;;;;3.63;1.05;;;;;;;2.34;85.70;96605.34;5066751;28;20048;-82
2023/01/16 09:20:30;;;;;;;6.13;0.98;;;;;;;2.46;85.54;96609.13;5062560;28;20424;-84
2023/01/16 09:23:02;;;;;;;1.20;1.00;;;;;;;2.38;85.84;96598.56;5064522;28;20124;-83
2023/01/16 09:25:30;;;;;;;1.38;0.65;;;;;;;2.41;85.58;96616.09;5060802;28;20056;-84
2023/01/16 09:28:00;;;;;;;2.13;0.77;;;;;;;2.46;86.92;96633.28;5056326;28;20485;-84
2023/01/16 09:30:28;;;;;;;0.60;0.60;;;;;;;2.58;87.35;96627.38;5057035;28;20052;-82
2023/01/16 09:32:54;;;;;;;3.40;1.02;;;;;;;2.59;86.93;96629.88;5064439;28;20500;-82
2023/01/16 09:35:21;;;;;;;2.58;0.68;;;;;;;2.54;84.55;96642.19;5068957;28;20055;-82
2023/01/16 09:37:48;;;;;;;0.80;0.80;;;;;;;2.60;85.59;96665.56;5066692;28;20076;-82
2023/01/16 09:40:18;;;;;;;1.42;0.90;;;;;;;2.43;83.79;96652.44;5067058;28;20040;-82
2023/01/16 09:45:59;;;;;;;4.82;1.40;;;;;;;2.63;86.54;96651.75;5068142;28;20051;-82
2023/01/16 09:48:29;;;;;;;1.42;0.73;;;;;;;2.60;82.95;96603.88;5070477;28;20057;-83
2023/01/16 09:51:00;;;;;;;2.17;0.88;;;;;;;2.67;83.49;96585.13;5062563;28;20050;-82
2023/01/16 09:59:20;;;;;;;9.18;2.95;;;;;;;3.04;81.10;96556.19;5062204;28;20055;-82
2023/01/16 10:01:54;;;;;;;3.33;1.10;;;;;;;3.12;78.44;96545.28;5065307;28;20103;-82
2023/01/16 10:04:22;;;;;;;0.50;0.50;;;;;;;3.29;76.38;96557.28;5060062;28;20128;-82
2023/01/16 10:07:02;;;;;;;3.20;0.70;;;;;;;3.23;76.01;96533.13;5065840;28;20057;-82
2023/01/16 10:09:33;;;;;;;6.30;0.60;;;;;;;3.42;76.02;96548.44;5056761;28;20070;-83
2023/01/16 10:12:05;;;;;;;2.10;0.80;;;;;;;3.31;75.58;96525.72;5061769;28;20407;-83
2023/01/16 10:14:43;;;;;;;0.60;0.60;;;;;;;3.47;74.85;96543.28;5067581;28;20076;-83
2023/01/16 10:17:21;;;;;;;1.75;0.57;;;;;;;3.46;74.14;96519.31;5070988;28;20041;-83
2023/01/16 10:20:06;;;;;;;0.52;0.52;;;;;;;3.47;73.63;96502.16;5070524;28;20068;-83
2023/01/16 10:22:45;;;;;;;0.45;0.45;;;;;;;3.45;74.89;96474.69;5067003;28;20340;-82
2023/01/16 10:25:23;;;;;;;6.00;0.70;;;;;;;3.53;73.46;96477.16;5064742;28;20049;-82
2023/01/16 10:28:05;;;;;;;0.47;0.47;;;;;;;3.59;72.91;96472.84;5069443;28;20044;-83
2023/01/16 10:30:39;;;;;;;0.65;0.50;;;;;;;3.57;72.50;96454.25;5066753;28;20040;-83
2023/01/16 10:33:13;;;;;;;0.65;0.52;;;;;;;3.62;70.81;96454.44;5069224;28;20435;-83
2023/01/16 10:35:44;;;;;;;0.50;0.50;;;;;;;3.70;67.97;96451.56;5069969;28;20488;-83
2023/01/16 10:38:25;;;;;;;1.55;0.30;;;;;;;3.86;65.53;96442.22;5063482;28;20113;-84
2023/01/16 10:40:53;;;;;;;1.45;0.82;;;;;;;3.94;66.71;96453.78;5069178;28;20460;-83
2023/01/16 10:51:47;;;;;;;1.38;0.60;;;;;;;4.11;65.88;96457.69;5068704;28;20394;-83
2023/01/16 10:54:14;;;;;;;4.28;0.60;;;;;;;4.01;64.35;96442.00;5072394;28;20131;-83
2023/01/16 10:56:41;;;;;;;2.17;0.43;;;;;;;4.16;67.25;96471.31;5072296;28;20476;-82
2023/01/16 10:59:08;;;;;;;2.63;0.77;;;;;;;4.16;65.73;96457.88;5067807;28;20048;-85
2023/01/16 11:01:37;;;;;;;0.43;0.43;;;;;;;4.12;65.55;96453.94;5070876;28;20135;-84
2023/01/16 11:04:12;;;;;;;0.50;0.50;;;;;;;4.25;65.92;96427.03;5068454;28;20048;-84
2023/01/16 11:06:41;;;;;;;0.40;0.40;;;;;;;4.32;66.53;96426.19;5073065;28;20070;-83
2023/01/16 11:09:18;;;;;;;0.95;0.32;;;;;;;4.37;67.28;96426.38;5068222;28;20056;-83
2023/01/16 11:20:11;;;;;;;0.43;0.43;;;;;;;4.33;71.56;96387.50;5072938;28;20435;-83
2023/01/16 11:22:41;;;;;;;0.47;0.47;;;;;;;4.30;75.78;96375.28;5064188;28;20048;-83
2023/01/16 11:25:17;;;;;;;1.85;0.35;;;;;;;4.48;76.70;96403.38;5064174;28;20321;-83
2023/01/16 11:27:45;;;;;;;1.30;0.60;;;;;;;4.34;77.68;96389.16;5070341;28;20040;-83
2023/01/16 11:30:18;;;;;;;0.93;0.50;;;;;;;4.41;74.73;96393.47;5072479;28;20499;-83
2023/01/16 11:32:49;;;;;;;0.30;0.20;;;;;;;4.32;73.43;96364.31;5066441;28;20052;-82
2023/01/16 11:35:18;;;;;;;0.75;0.40;;;;;;;4.37;76.77;96372.59;5069026;28;20484;-83
2023/01/16 11:37:46;;;;;;;0.30;0.30;;;;;;;4.36;78.54;96384.38;5067940;28;20480;-82
2023/01/16 11:40:20;;;;;;;0.30;0.30;;;;;;;4.15;79.88;96334.41;5070724;28;20040;-83
2023/01/16 11:46:04;;;;;;;1.00;0.40;;;;;;;4.22;80.31;96327.13;5071016;28;20059;-82
2023/01/16 11:48:38;;;;;;;3.30;1.65;;;;;;;4.29;80.44;96319.88;5059622;28;20115;-83
2023/01/16 11:51:07;;;;;;;0.70;0.50;;;;;;;4.27;78.41;96310.34;5074808;28;20056;-83
2023/01/16 11:53:35;;;;;;;0.60;0.60;;;;;;;4.46;73.58;96319.34;5067203;28;20488;-83
2023/01/16 11:56:25;;;;;;;1.48;0.50;;;;;;;4.56;73.50;96336.69;5071415;28;20612;-83
2023/01/16 11:59:06;;;;;;;;;;;;;;;4.55;74.30;96310.00;5067125;28;20037;-83
2023/01/16 12:02:15;;;;;;;;;;;;;;;4.51;77.90;96309.59;5070524;28;19920;-83
2023/01/16 12:04:26;;;;;;;0.40;0.40;;;;;;;4.45;77.51;96299.69;5071495;28;19990;-83
2023/01/16 12:07:01;;;;;;;1.00;0.40;;;;;;;4.47;77.83;96288.72;5063164;28;20036;-83
2023/01/16 12:09:51;;;;;;;0.40;0.40;;;;;;;4.46;78.07;96276.28;5070274;28;20307;-83
2023/01/16 12:15:08;;;;;;;0.50;0.50;;;;;;;4.45;77.13;96264.72;5064783;28;20430;-83
2023/01/16 12:17:54;;;;;;;0.57;0.50;;;;;;;4.50;77.09;96261.38;5070443;28;20285;-82
2023/01/16 12:20:34;;;;;;;0.40;0.40;;;;;;;4.46;79.06;96244.00;5070208;28;20049;-83
2023/01/16 12:23:17;;;;;;;0.30;0.30;;;;;;;4.49;79.62;96252.50;5065170;28;20046;-82
2023/01/16 12:25:53;;;;;;;0.85;0.60;;;;;;;4.44;80.96;96236.16;5067894;28;20309;-82
2023/01/16 12:28:32;;;;;;;0.32;0.32;;;;;;;4.37;80.50;96219.28;5061156;28;20044;-83
2023/01/16 12:31:30;;;;;;;0.57;0.30;;;;;;;4.49;79.69;96228.28;5070106;28;20048;-83
2023/01/16 12:34:11;;;;;;;1.75;0.50;;;;;;;4.59;80.76;96227.78;5064537;28;20043;-83
2023/01/16 12:36:47;;;;;;;2.47;0.50;;;;;;;4.66;80.34;96223.19;5062993;28;20037;-83
2023/01/16 12:39:23;;;;;;;0.63;0.50;;;;;;;4.70;80.05;96231.66;5068611;28;20056;-83
2023/01/16 12:44:49;;;;;;;0.30;0.30;;;;;;;4.74;80.05;96222.91;5035696;28;20055;-83
2023/01/16 12:47:37;;;;;;;0.47;0.35;;;;;;;4.66;79.56;96207.03;5065622;28;20063;-84
2023/01/16 12:50:24;;;;;;;0.50;0.50;;;;;;;4.70;79.90;96202.06;5060985;28;20057;-83
2023/01/16 12:53:19;;;;;;;0.52;0.50;;;;;;;4.67;79.88;96176.41;5068125;28;20048;-82
2023/01/16 12:55:55;;;;;;;1.27;0.43;;;;;;;4.88;80.53;96183.25;5065009;28;20048;-82
2023/01/16 12:58:26;;;;;;;0.65;0.63;;;;;;;5.07;79.51;96197.56;5059416;28;20044;-83